createdAt,value
2022-09-10T00:00:08.314Z,100730.75
2022-09-10T00:02:33.933Z,100725.81
2022-09-10T00:05:00.614Z,100721.03
2022-09-10T00:07:24.162Z,100722.75
2022-09-10T00:09:49.078Z,100731.41
2022-09-10T00:12:12.794Z,100730.16
2022-09-10T00:14:36.322Z,100736.94
2022-09-10T00:16:59.842Z,100732.50
2022-09-10T00:19:23.427Z,100735.53
2022-09-10T00:21:47.099Z,100736.31
2022-09-10T00:24:10.654Z,100730.91
2022-09-10T00:26:39.693Z,100728.91
2022-09-10T00:29:03.712Z,100730.91
2022-09-10T00:31:29.525Z,100734.94
2022-09-10T00:33:54.877Z,100733.38
2022-09-10T00:36:21.722Z,100730.69
2022-09-10T00:38:45.355Z,100728.13
2022-09-10T00:41:09.310Z,100724.13
2022-09-10T00:46:41.275Z,100735.56
2022-09-10T00:49:11.069Z,100728.22
2022-09-10T00:51:38.315Z,100729.06
2022-09-10T00:54:03.475Z,100727.22
2022-09-10T00:56:28.330Z,100727.38
2022-09-10T00:58:52.501Z,100722.47
2022-09-10T01:01:16.928Z,100725.53
2022-09-10T01:03:43.993Z,100728.22
2022-09-10T01:06:08.463Z,100726.28
2022-09-10T01:08:32.057Z,100739.13
2022-09-10T01:11:11.302Z,100737.59
2022-09-10T01:13:51.467Z,100742.59
2022-09-10T01:16:24.752Z,100731.25
2022-09-10T01:18:58.370Z,100737.19
2022-09-10T01:21:26.879Z,100732.41
2022-09-10T01:24:45.471Z,100730.78
2022-09-10T01:27:35.883Z,100728.78
2022-09-10T01:30:07.258Z,100723.50
2022-09-10T01:32:40.923Z,100716.88
2022-09-10T01:35:15.617Z,100728.16
2022-09-10T01:37:43.882Z,100726.06
2022-09-10T01:40:09.558Z,100728.59
2022-09-10T01:42:35.035Z,100721.50
2022-09-10T01:44:59.170Z,100725.91
2022-09-10T01:47:42.215Z,100733.22
2022-09-10T01:50:24.164Z,100733.22
2022-09-10T01:53:06.162Z,100729.69
2022-09-10T01:55:38.354Z,100737.53
2022-09-10T01:58:13.334Z,100730.75
2022-09-10T02:00:50.735Z,100739.13
2022-09-10T02:03:18.450Z,100739.44
2022-09-10T02:05:48.765Z,100744.13
2022-09-10T02:08:17.990Z,100742.56
2022-09-10T02:10:52.314Z,100741.59
2022-09-10T02:13:18.549Z,100737.47
2022-09-10T02:16:02.934Z,100738.50
2022-09-10T02:18:34.680Z,100740.50
2022-09-10T02:20:59.735Z,100731.81
2022-09-10T02:23:29.284Z,100741.22
2022-09-10T02:25:54.194Z,100747.63
2022-09-10T02:28:25.503Z,100739.66
2022-09-10T02:30:49.182Z,100740.81
2022-09-10T02:33:16.281Z,100743.53
2022-09-10T02:35:40.076Z,100746.22
2022-09-10T02:38:05.850Z,100745.63
2022-09-10T02:40:31.519Z,100741.09
2022-09-10T02:42:55.597Z,100754.16
2022-09-10T02:45:23.382Z,100757.31
2022-09-10T02:47:46.943Z,100755.22
2022-09-10T02:50:12.619Z,100754.22
2022-09-10T02:52:37.131Z,100759.06
2022-09-10T02:55:01.187Z,100752.66
2022-09-10T02:57:24.800Z,100752.41
2022-09-10T02:59:48.403Z,100747.44
2022-09-10T03:02:14.509Z,100748.59
2022-09-10T03:04:38.290Z,100748.88
2022-09-10T03:07:01.830Z,100752.00
2022-09-10T03:09:29.011Z,100751.44
2022-09-10T03:11:52.716Z,100745.88
2022-09-10T03:14:20.299Z,100743.47
2022-09-10T03:16:43.950Z,100743.47
2022-09-10T03:19:09.223Z,100739.75
2022-09-10T03:21:34.143Z,100743.78
2022-09-10T03:23:57.766Z,100752.88
2022-09-10T03:26:26.369Z,100737.09
2022-09-10T03:28:51.186Z,100741.78
2022-09-10T03:31:18.238Z,100744.06
2022-09-10T03:33:46.192Z,100740.94
2022-09-10T03:36:13.736Z,100737.53
2022-09-10T03:38:39.104Z,100738.28
2022-09-10T03:41:03.606Z,100738.97
2022-09-10T03:43:27.288Z,100740.13
2022-09-10T03:45:52.009Z,100745.63
2022-09-10T03:48:15.996Z,100743.66
2022-09-10T03:50:39.706Z,100735.31
2022-09-10T03:53:04.998Z,100736.59
2022-09-10T03:55:30.467Z,100735.16
2022-09-10T03:57:54.156Z,100733.91
2022-09-10T04:00:18.877Z,100740.56
2022-09-10T04:02:46.517Z,100739.44
2022-09-10T04:05:11.290Z,100744.97
2022-09-10T04:07:36.707Z,100745.13
2022-09-10T04:10:01.727Z,100741.72
2022-09-10T04:12:27.038Z,100741.56
2022-09-10T04:14:50.670Z,100733.78
2022-09-10T04:17:14.369Z,100740.16
2022-09-10T04:19:40.855Z,100741.31
2022-09-10T04:22:04.528Z,100748.69
2022-09-10T04:24:28.848Z,100739.31
2022-09-10T04:26:54.118Z,100745.13
2022-09-10T04:29:19.220Z,100738.63
2022-09-10T04:31:43.288Z,100734.50
2022-09-10T04:34:09.545Z,100729.09
2022-09-10T04:36:33.271Z,100745.44
2022-09-10T04:38:59.072Z,100734.50
2022-09-10T04:41:23.085Z,100740.78
2022-09-10T04:43:48.066Z,100746.72
2022-09-10T04:46:12.270Z,100740.91
2022-09-10T04:48:38.845Z,100744.59
2022-09-10T04:51:16.128Z,100740.47
2022-09-10T04:53:42.321Z,100741.47
2022-09-10T04:56:06.492Z,100733.09
2022-09-10T04:58:38.474Z,100742.75
2022-09-10T05:01:04.231Z,100737.47
2022-09-10T05:03:27.872Z,100739.75
2022-09-10T05:05:51.856Z,100745.72
2022-09-10T05:08:15.470Z,100737.91
2022-09-10T05:10:46.326Z,100738.63
2022-09-10T05:13:10.439Z,100743.75
2022-09-10T05:15:34.543Z,100749.00
2022-09-10T05:18:00.379Z,100742.75
2022-09-10T05:20:24.331Z,100742.47
2022-09-10T05:22:50.260Z,100741.63
2022-09-10T05:25:14.154Z,100739.03
2022-09-10T05:27:38.696Z,100748.00
2022-09-10T05:30:05.124Z,100747.72
2022-09-10T05:32:28.815Z,100746.28
2022-09-10T05:34:53.719Z,100749.53
2022-09-10T05:37:18.740Z,100745.84
2022-09-10T05:39:42.929Z,100748.38
2022-09-10T05:42:07.312Z,100747.66
2022-09-10T05:44:32.025Z,100753.34
2022-09-10T05:46:55.798Z,100756.28
2022-09-10T05:49:19.324Z,100752.44
2022-09-10T05:51:44.387Z,100748.31
2022-09-10T05:54:08.295Z,100756.53
2022-09-10T05:56:32.750Z,100752.72
2022-09-10T05:58:56.322Z,100758.13
2022-09-10T06:01:20.126Z,100762.22
2022-09-10T06:03:44.475Z,100752.94
2022-09-10T06:06:09.914Z,100751.06
2022-09-10T06:08:40.021Z,100760.09
2022-09-10T06:11:13.504Z,100756.81
2022-09-10T06:13:42.550Z,100757.78
2022-09-10T06:16:07.445Z,100758.47
2022-09-10T06:18:32.082Z,100764.41
2022-09-10T06:21:05.129Z,100766.63
2022-09-10T06:23:28.746Z,100774.59
2022-09-10T06:26:04.377Z,100770.38
2022-09-10T06:28:29.650Z,100774.03
2022-09-10T06:30:53.234Z,100774.69
2022-09-10T06:33:17.183Z,100777.13
2022-09-10T06:35:41.007Z,100778.50
2022-09-10T06:38:04.583Z,100784.69
2022-09-10T06:40:29.990Z,100784.59
2022-09-10T06:42:55.354Z,100779.31
2022-09-10T06:45:42.178Z,100786.34
2022-09-10T06:48:48.470Z,100772.88
2022-09-10T06:51:08.827Z,100777.34
2022-09-10T06:53:34.467Z,100785.94
2022-09-10T06:56:02.533Z,100778.06
2022-09-10T06:58:35.243Z,100782.53
2022-09-10T07:00:59.546Z,100781.13
2022-09-10T07:03:24.135Z,100777.28
2022-09-10T07:05:49.253Z,100782.88
2022-09-10T07:08:14.707Z,100781.22
2022-09-10T07:10:38.599Z,100776.91
2022-09-10T07:13:02.578Z,100772.59
2022-09-10T07:15:28.462Z,100768.19
2022-09-10T07:17:52.127Z,100776.09
2022-09-10T07:20:17.303Z,100767.16
2022-09-10T07:22:43.792Z,100776.97
2022-09-10T07:25:10.334Z,100772.53
2022-09-10T07:27:48.542Z,100769.78
2022-09-10T07:30:13.958Z,100766.78
2022-09-10T07:32:38.909Z,100764.50
2022-09-10T07:35:09.632Z,100770.47
2022-09-10T07:37:33.705Z,100768.16
2022-09-10T07:39:58.070Z,100777.91
2022-09-10T07:42:22.326Z,100772.88
2022-09-10T07:44:48.014Z,100776.72
2022-09-10T07:47:11.566Z,100778.34
2022-09-10T07:49:36.524Z,100777.75
2022-09-10T07:52:01.242Z,100776.28
2022-09-10T07:54:31.078Z,100778.22
2022-09-10T07:56:55.096Z,100781.31
2022-09-10T07:59:19.254Z,100784.28
2022-09-10T08:01:53.919Z,100791.75
2022-09-10T08:04:18.778Z,100781.22
2022-09-10T08:06:44.094Z,100777.59
2022-09-10T08:09:08.256Z,100789.59
2022-09-10T08:11:35.740Z,100787.59
2022-09-10T08:14:00.877Z,100784.09
2022-09-10T08:16:26.942Z,100792.91
2022-09-10T08:18:56.947Z,100792.53
2022-09-10T08:21:22.050Z,100793.16
2022-09-10T08:23:50.948Z,100789.25
2022-09-10T08:26:15.943Z,100796.88
2022-09-10T08:28:43.507Z,100793.09
2022-09-10T08:31:10.361Z,100792.25
2022-09-10T08:33:41.488Z,100794.63
2022-09-10T08:36:07.191Z,100804.94
2022-09-10T08:38:32.867Z,100801.19
2022-09-10T08:41:00.452Z,100800.25
2022-09-10T08:43:32.449Z,100795.63
2022-09-10T08:45:57.435Z,100799.69
2022-09-10T08:48:25.063Z,100803.16
2022-09-10T08:50:56.149Z,100803.31
2022-09-10T08:53:29.454Z,100803.59
2022-09-10T08:56:02.970Z,100802.53
2022-09-10T08:58:33.065Z,100808.13
2022-09-10T09:01:00.426Z,100799.56
2022-09-10T09:03:32.832Z,100803.00
2022-09-10T09:06:00.800Z,100796.56
2022-09-10T09:08:35.335Z,100803.53
2022-09-10T09:11:14.839Z,100794.56
2022-09-10T09:13:58.735Z,100795.41
2022-09-10T09:16:54.539Z,100802.09
2022-09-10T09:19:31.562Z,100801.19
2022-09-10T09:21:57.419Z,100796.47
2022-09-10T09:24:44.252Z,100802.69
2022-09-10T09:27:16.850Z,100801.97
2022-09-10T09:29:47.794Z,100804.81
2022-09-10T09:32:17.293Z,100795.59
2022-09-10T09:34:45.915Z,100804.13
2022-09-10T09:37:18.916Z,100788.47
2022-09-10T09:39:49.789Z,100792.03
2022-09-10T09:42:23.016Z,100789.91
2022-09-10T09:44:57.177Z,100789.63
2022-09-10T09:47:23.166Z,100792.13
2022-09-10T09:49:47.274Z,100787.88
2022-09-10T09:52:20.930Z,100779.78
2022-09-10T09:57:36.362Z,100790.19
2022-09-10T10:00:33.277Z,100788.75
2022-09-10T10:02:56.975Z,100788.84
2022-09-10T10:05:25.935Z,100782.41
2022-09-10T10:07:50.403Z,100770.72
2022-09-10T10:10:25.466Z,100767.16
2022-09-10T10:12:52.800Z,100778.31
2022-09-10T10:15:38.143Z,100765.59
2022-09-10T10:18:03.318Z,100772.06
2022-09-10T10:20:41.460Z,100765.31
2022-09-10T10:23:31.338Z,100768.59
2022-09-10T10:25:54.967Z,100755.44
2022-09-10T10:28:25.550Z,100760.38
2022-09-10T10:30:54.522Z,100764.41
2022-09-10T10:33:22.171Z,100759.19
2022-09-10T10:35:50.346Z,100759.78
2022-09-10T10:38:33.074Z,100766.66
2022-09-10T10:41:41.771Z,100764.34
2022-09-10T10:44:37.054Z,100767.53
2022-09-10T10:47:21.016Z,100756.72
2022-09-10T10:50:01.103Z,100758.50
2022-09-10T10:52:33.895Z,100759.31
2022-09-10T10:55:14.404Z,100758.19
2022-09-10T10:57:59.852Z,100762.28
2022-09-10T11:00:25.843Z,100761.19
2022-09-10T11:02:54.744Z,100764.47
2022-09-10T11:05:26.967Z,100761.03
2022-09-10T11:07:50.878Z,100762.94
2022-09-10T11:10:21.171Z,100756.41
2022-09-10T11:12:51.561Z,100765.13
2022-09-10T11:15:29.443Z,100759.38
2022-09-10T11:17:59.047Z,100763.13
2022-09-10T11:20:29.731Z,100765.38
2022-09-10T11:22:59.076Z,100768.34
2022-09-10T11:25:27.878Z,100762.44
2022-09-10T11:27:57.099Z,100764.16
2022-09-10T11:30:21.700Z,100765.75
2022-09-10T11:32:54.397Z,100764.66
2022-09-10T11:35:23.530Z,100758.06
2022-09-10T11:37:57.652Z,100750.78
2022-09-10T11:40:28.556Z,100754.25
2022-09-10T11:42:58.861Z,100764.19
2022-09-10T11:45:32.499Z,100752.72
2022-09-10T11:48:06.651Z,100761.94
2022-09-10T11:50:37.787Z,100757.16
2022-09-10T11:53:02.296Z,100748.91
2022-09-10T11:55:44.402Z,100760.91
2022-09-10T11:58:18.191Z,100756.44
2022-09-10T12:00:54.408Z,100749.56
2022-09-10T12:03:53.445Z,100747.13
2022-09-10T12:06:23.882Z,100747.31
2022-09-10T12:09:01.798Z,100738.16
2022-09-10T12:11:35.493Z,100743.84
2022-09-10T12:13:59.515Z,100738.34
2022-09-10T12:16:34.784Z,100736.38
2022-09-10T12:19:01.459Z,100731.25
2022-09-10T12:21:35.912Z,100736.28
2022-09-10T12:24:02.492Z,100740.16
2022-09-10T12:26:26.492Z,100725.16
2022-09-10T12:29:06.767Z,100724.50
2022-09-10T12:32:17.037Z,100724.31
2022-09-10T12:34:42.395Z,100726.78
2022-09-10T12:37:24.828Z,100726.47
2022-09-10T12:39:48.576Z,100719.34
2022-09-10T12:42:30.031Z,100719.06
2022-09-10T12:44:53.991Z,100714.41
2022-09-10T12:47:45.020Z,100714.34
2022-09-10T12:50:37.603Z,100716.88
2022-09-10T12:54:01.626Z,100707.16
2022-09-10T12:57:08.241Z,100708.25
2022-09-10T13:00:12.767Z,100709.19
2022-09-10T13:02:47.227Z,100706.28
2022-09-10T13:05:33.238Z,100709.56
2022-09-10T13:08:08.094Z,100701.97
2022-09-10T13:10:33.066Z,100704.16
2022-09-10T13:13:01.722Z,100701.28
2022-09-10T13:15:28.210Z,100692.06
2022-09-10T13:18:24.779Z,100686.41
2022-09-10T13:20:49.868Z,100693.00
2022-09-10T13:23:27.766Z,100688.53
2022-09-10T13:25:52.947Z,100699.84
2022-09-10T13:29:01.349Z,100696.00
2022-09-10T13:31:28.843Z,100696.59
2022-09-10T13:34:33.523Z,100683.63
2022-09-10T13:37:16.127Z,100693.72
2022-09-10T13:40:19.242Z,100694.34
2022-09-10T13:43:03.182Z,100689.31
2022-09-10T13:45:29.990Z,100695.44
2022-09-10T13:48:02.166Z,100686.28
2022-09-10T13:50:31.156Z,100684.66
2022-09-10T13:53:00.032Z,100687.47
2022-09-10T13:55:27.530Z,100687.03
2022-09-10T13:57:54.647Z,100699.59
2022-09-10T14:00:24.677Z,100693.09
2022-09-10T14:02:52.448Z,100690.38
2022-09-10T14:05:34.700Z,100687.56
2022-09-10T14:08:05.318Z,100695.34
2022-09-10T14:10:29.934Z,100692.59
2022-09-10T14:12:55.844Z,100703.41
2022-09-10T14:15:23.650Z,100695.28
2022-09-10T14:17:52.057Z,100695.13
2022-09-10T14:20:24.947Z,100696.63
2022-09-10T14:22:48.671Z,100697.72
2022-09-10T14:25:31.577Z,100691.16
2022-09-10T14:27:55.544Z,100699.41
2022-09-10T14:30:31.059Z,100700.69
2022-09-10T14:32:55.410Z,100698.34
2022-09-10T14:35:42.995Z,100705.69
2022-09-10T14:38:22.624Z,100703.03
2022-09-10T14:40:49.710Z,100700.84
2022-09-10T14:43:16.918Z,100708.44
2022-09-10T14:45:42.558Z,100711.59
2022-09-10T14:48:06.814Z,100712.25
2022-09-10T14:50:34.319Z,100713.91
2022-09-10T14:52:58.306Z,100707.78
2022-09-10T14:55:23.471Z,100705.94
2022-09-10T14:57:48.984Z,100703.66
2022-09-10T15:00:16.693Z,100699.75
2022-09-10T15:02:42.642Z,100699.00
2022-09-10T15:05:08.275Z,100698.75
2022-09-10T15:07:31.834Z,100699.84
2022-09-10T15:09:55.383Z,100701.28
2022-09-10T15:12:23.869Z,100706.19
2022-09-10T15:14:48.872Z,100707.91
2022-09-10T15:17:15.618Z,100713.00
2022-09-10T15:19:39.174Z,100716.38
2022-09-10T15:22:02.724Z,100721.44
2022-09-10T15:24:28.605Z,100723.09
2022-09-10T15:26:52.572Z,100726.09
2022-09-10T15:29:17.966Z,100726.09
2022-09-10T15:31:44.622Z,100716.59
2022-09-10T15:34:10.570Z,100709.44
2022-09-10T15:36:34.323Z,100713.84
2022-09-10T15:38:59.622Z,100714.66
2022-09-10T15:41:23.628Z,100718.50
2022-09-10T15:43:47.719Z,100715.31
2022-09-10T15:46:12.385Z,100714.66
2022-09-10T15:48:38.174Z,100716.59
2022-09-10T15:51:03.942Z,100720.78
2022-09-10T15:53:28.140Z,100717.00
2022-09-10T15:55:51.647Z,100717.19
2022-09-10T15:58:15.469Z,100719.94
2022-09-10T16:00:38.995Z,100713.59
2022-09-10T16:03:02.622Z,100716.09
2022-09-10T16:05:28.660Z,100709.19
2022-09-10T16:07:52.838Z,100714.63
2022-09-10T16:10:17.479Z,100714.25
2022-09-10T16:12:41.524Z,100708.94
2022-09-10T16:15:05.710Z,100715.28
2022-09-10T16:17:29.421Z,100710.66
2022-09-10T16:19:53.933Z,100712.56
2022-09-10T16:22:20.811Z,100714.66
2022-09-10T16:24:44.482Z,100722.19
2022-09-10T16:27:08.075Z,100725.19
2022-09-10T16:29:32.670Z,100731.09
2022-09-10T16:31:57.267Z,100728.94
2022-09-10T16:34:22.170Z,100737.63
2022-09-10T16:36:48.724Z,100735.09
2022-09-10T16:39:15.591Z,100735.53
2022-09-10T16:41:40.286Z,100744.75
2022-09-10T16:44:04.355Z,100748.53
2022-09-10T16:46:29.036Z,100749.28
2022-09-10T16:48:54.816Z,100766.28
2022-09-10T16:51:20.755Z,100768.44
2022-09-10T16:53:46.091Z,100766.25
2022-09-10T16:56:13.839Z,100766.47
2022-09-10T16:58:38.880Z,100770.91
2022-09-10T17:01:03.097Z,100768.34
2022-09-10T17:03:26.894Z,100762.47
2022-09-10T17:05:50.887Z,100767.06
2022-09-10T17:08:14.403Z,100755.69
2022-09-10T17:10:37.958Z,100757.34
2022-09-10T17:13:03.011Z,100749.28
2022-09-10T17:15:26.608Z,100757.88
2022-09-10T17:17:50.123Z,100757.84
2022-09-10T17:20:14.494Z,100761.78
2022-09-10T17:22:38.056Z,100758.16
2022-09-10T17:25:01.624Z,100763.72
2022-09-10T17:27:25.759Z,100767.72
2022-09-10T17:29:50.870Z,100773.91
2022-09-10T17:32:14.369Z,100778.72
2022-09-10T17:34:38.016Z,100785.19
2022-09-10T17:37:01.669Z,100780.50
2022-09-10T17:39:28.263Z,100774.91
2022-09-10T17:41:55.268Z,100782.84
2022-09-10T17:44:18.967Z,100780.78
2022-09-10T17:46:45.000Z,100783.75
2022-09-10T17:49:08.600Z,100779.59
2022-09-10T17:51:34.584Z,100782.44
2022-09-10T17:53:58.908Z,100788.09
2022-09-10T17:56:24.512Z,100790.03
2022-09-10T17:58:48.798Z,100790.78
2022-09-10T18:01:18.203Z,100788.81
2022-09-10T18:03:46.760Z,100798.25
2022-09-10T18:06:12.154Z,100802.13
2022-09-10T18:08:36.385Z,100810.41
2022-09-10T18:11:05.724Z,100809.00
2022-09-10T18:13:29.891Z,100814.19
2022-09-10T18:15:53.505Z,100812.59
2022-09-10T18:18:17.132Z,100823.03
2022-09-10T18:20:43.001Z,100820.38
2022-09-10T18:23:07.167Z,100810.59
2022-09-10T18:25:33.446Z,100815.09
2022-09-10T18:27:57.408Z,100814.97
2022-09-10T18:30:21.043Z,100818.97
2022-09-10T18:32:44.634Z,100826.03
2022-09-10T18:35:09.100Z,100823.78
2022-09-10T18:37:34.304Z,100823.44
2022-09-10T18:39:58.557Z,100826.09
2022-09-10T18:42:22.202Z,100829.09
2022-09-10T18:44:45.699Z,100825.16
2022-09-10T18:47:22.664Z,100836.22
2022-09-10T18:49:54.279Z,100837.34
2022-09-10T18:52:17.927Z,100826.06
2022-09-10T18:54:46.587Z,100826.59
2022-09-10T18:57:10.346Z,100826.09
2022-09-10T18:59:34.475Z,100824.66
2022-09-10T19:01:58.030Z,100816.63
2022-09-10T19:04:24.272Z,100823.16
2022-09-10T19:06:49.720Z,100818.25
2022-09-10T19:09:16.192Z,100813.53
2022-09-10T19:11:43.767Z,100807.66
2022-09-10T19:14:14.778Z,100809.34
2022-09-10T19:16:38.340Z,100805.66
2022-09-10T19:19:06.597Z,100812.31
2022-09-10T19:21:32.323Z,100811.28
2022-09-10T19:23:59.507Z,100813.53
2022-09-10T19:26:24.354Z,100808.97
2022-09-10T19:28:49.256Z,100812.56
2022-09-10T19:31:15.916Z,100812.38
2022-09-10T19:33:39.671Z,100812.22
2022-09-10T19:36:05.055Z,100820.59
2022-09-10T19:38:37.442Z,100817.56
2022-09-10T19:41:06.931Z,100815.72
2022-09-10T19:43:30.486Z,100809.31
2022-09-10T19:45:57.915Z,100807.66
2022-09-10T19:48:21.954Z,100810.22
2022-09-10T19:50:45.881Z,100811.53
2022-09-10T19:53:09.378Z,100802.22
2022-09-10T19:55:34.836Z,100804.28
2022-09-10T19:58:00.042Z,100819.09
2022-09-10T20:00:45.474Z,100811.94
2022-09-10T20:03:09.995Z,100814.00
2022-09-10T20:05:35.648Z,100814.50
2022-09-10T20:07:59.391Z,100815.19
2022-09-10T20:10:22.946Z,100809.09
2022-09-10T20:12:46.577Z,100809.94
2022-09-10T20:15:10.975Z,100806.72
2022-09-10T20:17:34.619Z,100818.97
2022-09-10T20:19:59.494Z,100812.34
2022-09-10T20:22:23.079Z,100807.41
2022-09-10T20:24:46.592Z,100817.78
2022-09-10T20:27:10.230Z,100817.59
2022-09-10T20:29:33.878Z,100820.31
2022-09-10T20:31:57.487Z,100819.47
2022-09-10T20:34:23.261Z,100823.38
2022-09-10T20:36:51.195Z,100826.59
2022-09-10T20:39:17.063Z,100839.31
2022-09-10T20:41:40.704Z,100841.34
2022-09-10T20:44:04.497Z,100839.13
2022-09-10T20:46:30.656Z,100841.84
2022-09-10T20:48:55.036Z,100840.63
2022-09-10T20:51:20.541Z,100836.91
2022-09-10T20:53:46.050Z,100837.91
2022-09-10T20:56:12.513Z,100847.91
2022-09-10T20:58:38.243Z,100830.78
2022-09-10T21:01:11.408Z,100831.78
2022-09-10T21:03:35.883Z,100831.78
2022-09-10T21:05:59.413Z,100829.56
2022-09-10T21:08:23.407Z,100832.56
2022-09-10T21:10:48.522Z,100828.47
2022-09-10T21:13:12.203Z,100837.09
2022-09-10T21:15:35.954Z,100830.97
2022-09-10T21:17:59.823Z,100830.63
2022-09-10T21:20:23.606Z,100832.56
2022-09-10T21:22:47.242Z,100838.03
2022-09-10T21:25:11.108Z,100831.25
2022-09-10T21:27:36.052Z,100841.94
2022-09-10T21:29:59.606Z,100841.41
2022-09-10T21:32:23.619Z,100834.09
2022-09-10T21:34:47.160Z,100843.06
2022-09-10T21:37:11.107Z,100836.13
2022-09-10T21:39:34.699Z,100838.66
2022-09-10T21:41:59.813Z,100841.00
2022-09-10T21:44:25.216Z,100846.91
2022-09-10T21:46:49.944Z,100856.22
2022-09-10T21:49:14.101Z,100850.81
2022-09-10T21:51:38.268Z,100852.47
2022-09-10T21:54:01.958Z,100850.59
2022-09-10T21:56:29.569Z,100856.28
2022-09-10T21:58:53.929Z,100855.06
2022-09-10T22:01:21.928Z,100851.41
2022-09-10T22:03:47.266Z,100848.47
2022-09-10T22:06:13.993Z,100853.19
2022-09-10T22:08:39.596Z,100858.19
2022-09-10T22:11:07.667Z,100859.53
2022-09-10T22:13:31.150Z,100855.41
2022-09-10T22:15:54.743Z,100858.06
2022-09-10T22:18:20.494Z,100866.06
2022-09-10T22:20:44.098Z,100860.47
2022-09-10T22:23:07.830Z,100867.25
2022-09-10T22:25:33.206Z,100862.72
2022-09-10T22:27:58.354Z,100862.00
2022-09-10T22:30:22.254Z,100860.84
2022-09-10T22:32:46.618Z,100860.25
2022-09-10T22:35:11.739Z,100859.09
2022-09-10T22:37:35.667Z,100862.81
2022-09-10T22:40:00.423Z,100875.31
2022-09-10T22:42:26.097Z,100864.13
2022-09-10T22:44:49.663Z,100862.41
2022-09-10T22:47:13.144Z,100863.59
2022-09-10T22:49:37.280Z,100862.41
2022-09-10T22:52:02.254Z,100871.72
2022-09-10T22:54:25.858Z,100870.03
2022-09-10T22:56:49.446Z,100872.19
2022-09-10T22:59:14.708Z,100881.31
2022-09-10T23:01:39.533Z,100878.94
2022-09-10T23:04:06.213Z,100889.09
2022-09-10T23:06:32.587Z,100885.00
2022-09-10T23:09:03.531Z,100885.28
2022-09-10T23:11:29.658Z,100881.50
2022-09-10T23:13:56.768Z,100885.63
2022-09-10T23:16:23.263Z,100884.59
2022-09-10T23:18:50.622Z,100885.00
2022-09-10T23:21:14.520Z,100883.81
2022-09-10T23:23:38.115Z,100886.31
2022-09-10T23:26:08.318Z,100883.75
2022-09-10T23:28:31.862Z,100892.72
2022-09-10T23:30:55.458Z,100898.47
2022-09-10T23:33:19.004Z,100896.31
2022-09-10T23:35:50.962Z,100891.72
2022-09-10T23:38:14.562Z,100889.00
2022-09-10T23:40:38.362Z,100887.72
2022-09-10T23:43:03.294Z,100898.00
2022-09-10T23:45:27.518Z,100893.06
2022-09-10T23:47:51.284Z,100903.00
2022-09-10T23:50:14.942Z,100903.88
2022-09-10T23:52:38.893Z,100896.47
2022-09-10T23:55:02.394Z,100895.66
2022-09-10T23:57:26.084Z,100897.28
2022-09-10T23:59:50.971Z,100901.47
